createdAt,value
2023-03-02T00:01:31.264Z,22.98
2023-03-02T00:03:59.060Z,22.98
2023-03-02T00:06:26.522Z,22.97
2023-03-02T00:08:53.061Z,22.97
2023-03-02T00:11:21.435Z,22.96
2023-03-02T00:13:47.905Z,22.97
2023-03-02T00:16:14.453Z,22.97
2023-03-02T00:18:41.331Z,22.95
2023-03-02T00:21:10.499Z,22.95
2023-03-02T00:23:37.864Z,22.95
2023-03-02T00:26:05.305Z,22.94
2023-03-02T00:28:32.204Z,22.94
2023-03-02T00:30:59.155Z,22.93
2023-03-02T00:33:25.803Z,22.94
2023-03-02T00:35:52.359Z,22.92
2023-03-02T00:38:18.905Z,22.93
2023-03-02T00:40:46.493Z,22.92
2023-03-02T00:43:13.238Z,22.92
2023-03-02T00:45:39.742Z,22.93
2023-03-02T00:48:06.291Z,22.93
2023-03-02T00:50:32.903Z,22.93
2023-03-02T00:52:59.673Z,22.91
2023-03-02T00:55:26.177Z,22.92
2023-03-02T00:57:55.016Z,22.92
2023-03-02T01:00:29.734Z,22.91
2023-03-02T01:03:01.479Z,22.91
2023-03-02T01:05:28.501Z,22.91
2023-03-02T01:07:55.206Z,22.91
2023-03-02T01:10:21.852Z,22.90
2023-03-02T01:12:48.341Z,22.90
2023-03-02T01:15:14.811Z,22.90
2023-03-02T01:17:42.902Z,22.90
2023-03-02T01:20:10.174Z,22.88
2023-03-02T01:22:36.644Z,22.88
2023-03-02T01:25:03.507Z,22.87
2023-03-02T01:27:30.033Z,22.88
2023-03-02T01:29:57.062Z,22.88
2023-03-02T01:32:23.645Z,22.86
2023-03-02T01:34:50.193Z,22.86
2023-03-02T01:37:16.745Z,22.86
2023-03-02T01:39:43.323Z,22.86
2023-03-02T01:42:11.828Z,22.86
2023-03-02T01:44:43.128Z,22.86
2023-03-02T01:47:17.413Z,22.86
2023-03-02T01:49:57.482Z,22.85
2023-03-02T01:52:26.266Z,22.86
2023-03-02T01:54:53.577Z,22.84
2023-03-02T01:57:23.497Z,22.85
2023-03-02T01:59:50.733Z,22.84
2023-03-02T02:02:17.255Z,22.84
2023-03-02T02:04:44.482Z,22.84
2023-03-02T02:07:11.145Z,22.83
2023-03-02T02:09:44.895Z,22.83
2023-03-02T02:12:16.012Z,22.83
2023-03-02T02:14:42.665Z,22.83
2023-03-02T02:17:11.810Z,22.83
2023-03-02T02:19:40.653Z,22.82
2023-03-02T02:22:08.621Z,22.83
2023-03-02T02:24:39.596Z,22.83
2023-03-02T02:27:06.154Z,22.83
2023-03-02T02:29:37.367Z,22.81
2023-03-02T02:32:07.208Z,22.82
2023-03-02T02:34:53.670Z,22.81
2023-03-02T02:37:47.059Z,22.81
2023-03-02T02:40:21.303Z,22.80
2023-03-02T02:42:50.006Z,22.81
2023-03-02T02:45:24.258Z,22.80
2023-03-02T02:47:51.890Z,22.78
2023-03-02T02:50:19.578Z,22.79
2023-03-02T02:52:46.950Z,22.78
2023-03-02T02:55:16.557Z,22.78
2023-03-02T02:57:43.369Z,22.78
2023-03-02T03:00:12.257Z,22.78
2023-03-02T03:02:41.294Z,22.78
2023-03-02T03:05:10.041Z,22.77
2023-03-02T03:07:36.808Z,22.77
2023-03-02T03:10:13.767Z,22.77
2023-03-02T03:12:40.538Z,22.77
2023-03-02T03:15:07.345Z,22.78
2023-03-02T03:17:34.281Z,22.77
2023-03-02T03:20:09.320Z,22.77
2023-03-02T03:22:40.277Z,22.76
2023-03-02T03:25:09.662Z,22.77
2023-03-02T03:27:36.211Z,22.76
2023-03-02T03:30:04.163Z,22.76
2023-03-02T03:32:34.351Z,22.75
2023-03-02T03:35:03.547Z,22.76
2023-03-02T03:37:32.187Z,22.75
2023-03-02T03:39:59.416Z,22.76
2023-03-02T03:42:26.510Z,22.75
2023-03-02T03:44:55.016Z,22.76
2023-03-02T03:47:22.106Z,22.74
2023-03-02T03:49:50.076Z,22.75
2023-03-02T03:52:17.493Z,22.74
2023-03-02T03:54:44.148Z,22.74
2023-03-02T03:57:12.134Z,22.73
2023-03-02T03:59:39.465Z,22.73
2023-03-02T04:02:06.585Z,22.74
2023-03-02T04:04:36.258Z,22.73
2023-03-02T04:07:15.757Z,22.73
2023-03-02T04:09:43.923Z,22.73
2023-03-02T04:12:12.897Z,22.74
2023-03-02T04:14:43.873Z,22.73
2023-03-02T04:17:11.245Z,22.73
2023-03-02T04:19:41.543Z,22.72
2023-03-02T04:22:10.228Z,22.73
2023-03-02T04:24:38.248Z,22.73
2023-03-02T04:27:04.981Z,22.72
2023-03-02T04:29:32.867Z,22.73
2023-03-02T04:32:01.534Z,22.72
2023-03-02T04:34:29.248Z,22.72
2023-03-02T04:36:56.318Z,22.71
2023-03-02T04:39:22.892Z,22.71
2023-03-02T04:41:51.037Z,22.71
2023-03-02T04:44:18.484Z,22.72
2023-03-02T04:46:45.990Z,22.71
2023-03-02T04:49:13.097Z,22.71
2023-03-02T04:51:41.041Z,22.71
2023-03-02T04:54:13.786Z,22.71
2023-03-02T04:56:40.281Z,22.70
2023-03-02T04:59:06.906Z,22.67
2023-03-02T05:01:33.445Z,22.70
2023-03-02T05:04:02.736Z,22.68
2023-03-02T05:06:29.594Z,22.69
2023-03-02T05:08:59.743Z,22.70
2023-03-02T05:11:27.245Z,22.68
2023-03-02T05:13:54.877Z,22.68
2023-03-02T05:16:21.806Z,22.68
2023-03-02T05:18:48.388Z,22.67
2023-03-02T05:21:15.487Z,22.67
2023-03-02T05:23:42.841Z,22.67
2023-03-02T05:26:09.566Z,22.67
2023-03-02T05:28:36.004Z,22.67
2023-03-02T05:31:02.804Z,22.68
2023-03-02T05:33:29.727Z,22.69
2023-03-02T05:35:56.535Z,22.69
2023-03-02T05:38:23.256Z,22.70
2023-03-02T05:40:49.751Z,22.70
2023-03-02T05:43:17.541Z,22.70
2023-03-02T05:45:44.204Z,22.70
2023-03-02T05:48:10.864Z,22.70
2023-03-02T05:50:37.791Z,22.69
2023-03-02T05:53:04.579Z,22.71
2023-03-02T05:55:31.160Z,22.72
2023-03-02T05:57:57.662Z,22.74
2023-03-02T06:00:24.291Z,22.77
2023-03-02T06:02:50.856Z,22.81
2023-03-02T06:05:18.357Z,22.84
2023-03-02T06:07:44.785Z,22.89
2023-03-02T06:10:11.769Z,22.93
2023-03-02T06:12:40.256Z,22.96
2023-03-02T06:15:07.341Z,22.99
2023-03-02T06:17:33.779Z,23.03
2023-03-02T06:20:00.401Z,23.04
2023-03-02T06:22:27.060Z,23.05
2023-03-02T06:24:55.240Z,23.08
2023-03-02T06:27:21.732Z,23.12
2023-03-02T06:29:48.861Z,23.16
2023-03-02T06:32:15.648Z,23.16
2023-03-02T06:34:42.313Z,23.14
2023-03-02T06:37:09.070Z,23.15
2023-03-02T06:39:35.548Z,23.16
2023-03-02T06:42:01.965Z,23.15
2023-03-02T06:44:29.167Z,23.18
2023-03-02T06:46:55.692Z,23.19
2023-03-02T06:49:22.235Z,23.23
2023-03-02T06:51:48.686Z,23.29
2023-03-02T06:54:15.280Z,23.34
2023-03-02T06:56:41.878Z,23.34
2023-03-02T06:59:08.725Z,23.31
2023-03-02T07:01:35.809Z,23.27
2023-03-02T07:04:02.885Z,23.25
2023-03-02T07:06:29.426Z,23.27
2023-03-02T07:08:56.746Z,23.31
2023-03-02T07:11:23.175Z,23.40
2023-03-02T07:13:49.746Z,23.49
2023-03-02T07:16:17.219Z,23.59
2023-03-02T07:18:43.718Z,23.66
2023-03-02T07:21:10.224Z,23.72
2023-03-02T07:23:36.790Z,23.80
2023-03-02T07:26:08.218Z,23.88
2023-03-02T07:28:39.647Z,23.93
2023-03-02T07:31:06.776Z,24.00
2023-03-02T07:33:33.215Z,24.00
2023-03-02T07:36:00.583Z,24.00
2023-03-02T07:38:27.318Z,23.98
2023-03-02T07:40:53.901Z,23.95
2023-03-02T07:43:20.341Z,23.94
2023-03-02T07:45:46.837Z,23.92
2023-03-02T07:48:13.252Z,23.94
2023-03-02T07:50:40.426Z,23.94
2023-03-02T07:53:07.000Z,23.94
2023-03-02T07:55:33.628Z,23.94
2023-03-02T07:58:00.320Z,23.93
2023-03-02T08:00:26.944Z,23.94
2023-03-02T08:02:53.463Z,23.96
2023-03-02T08:05:20.289Z,23.97
2023-03-02T08:07:47.014Z,23.96
2023-03-02T08:10:13.536Z,23.99
2023-03-02T08:12:40.137Z,24.01
2023-03-02T08:15:06.792Z,24.01
2023-03-02T08:17:33.282Z,24.03
2023-03-02T08:20:00.566Z,24.06
2023-03-02T08:22:26.996Z,24.08
2023-03-02T08:24:53.431Z,24.12
2023-03-02T08:27:20.241Z,24.15
2023-03-02T08:29:46.715Z,24.15
2023-03-02T08:32:13.419Z,24.17
2023-03-02T08:34:40.140Z,24.22
2023-03-02T08:37:06.620Z,24.23
2023-03-02T08:39:33.215Z,24.27
2023-03-02T08:41:59.725Z,24.28
2023-03-02T08:44:26.181Z,24.29
2023-03-02T08:46:52.733Z,24.30
2023-03-02T08:49:19.341Z,24.31
2023-03-02T08:51:45.950Z,24.33
2023-03-02T08:54:12.599Z,24.33
2023-03-02T08:56:39.500Z,24.36
2023-03-02T08:59:06.961Z,24.42
2023-03-02T09:01:34.898Z,24.52
2023-03-02T09:04:01.758Z,24.61
2023-03-02T09:06:29.592Z,24.68
2023-03-02T09:08:56.593Z,24.73
2023-03-02T09:11:23.168Z,24.75
2023-03-02T09:13:49.744Z,24.75
2023-03-02T09:16:16.584Z,24.76
2023-03-02T09:18:43.116Z,24.76
2023-03-02T09:21:09.780Z,24.78
2023-03-02T09:23:36.603Z,24.78
2023-03-02T09:26:03.531Z,24.77
2023-03-02T09:28:31.628Z,24.75
2023-03-02T09:30:59.252Z,24.77
2023-03-02T09:33:26.156Z,24.78
2023-03-02T09:35:52.582Z,24.79
2023-03-02T09:38:19.146Z,24.80
2023-03-02T09:40:49.311Z,24.81
2023-03-02T09:43:33.957Z,24.82
2023-03-02T09:46:10.339Z,24.83
2023-03-02T09:48:46.849Z,24.85
2023-03-02T09:51:21.595Z,24.88
2023-03-02T09:54:06.713Z,24.91
2023-03-02T09:56:34.752Z,24.95
2023-03-02T09:59:03.182Z,24.94
2023-03-02T10:01:36.563Z,24.95
2023-03-02T10:04:18.464Z,24.96
2023-03-02T10:06:45.485Z,24.97
2023-03-02T10:09:12.100Z,25.02
2023-03-02T10:12:11.069Z,25.06
2023-03-02T10:14:48.641Z,25.09
2023-03-02T10:17:33.831Z,25.14
2023-03-02T10:20:02.395Z,25.16
2023-03-02T10:22:30.189Z,25.17
2023-03-02T10:25:09.223Z,25.18
2023-03-02T10:27:39.623Z,25.19
2023-03-02T10:30:17.821Z,25.17
2023-03-02T10:32:51.195Z,25.16
2023-03-02T10:35:25.366Z,25.15
2023-03-02T10:37:52.507Z,25.14
2023-03-02T10:40:28.075Z,25.12
2023-03-02T10:42:54.611Z,25.13
2023-03-02T10:45:27.194Z,25.11
2023-03-02T10:48:04.905Z,25.10
2023-03-02T10:50:31.790Z,25.08
2023-03-02T10:53:01.125Z,25.07
2023-03-02T10:55:28.213Z,25.07
2023-03-02T10:58:06.027Z,25.05
2023-03-02T11:00:33.205Z,25.05
2023-03-02T11:03:01.765Z,25.03
2023-03-02T11:05:31.071Z,25.01
2023-03-02T11:07:58.647Z,25.00
2023-03-02T11:10:26.792Z,25.00
2023-03-02T11:12:53.708Z,24.98
2023-03-02T11:15:20.408Z,24.97
2023-03-02T11:17:48.796Z,24.93
2023-03-02T11:20:16.817Z,24.93
2023-03-02T11:22:47.922Z,24.89
2023-03-02T11:25:25.572Z,24.89
2023-03-02T11:27:54.901Z,24.88
2023-03-02T11:30:22.724Z,24.90
2023-03-02T11:32:55.536Z,24.88
2023-03-02T11:35:22.882Z,24.88
2023-03-02T11:37:52.905Z,24.88
2023-03-02T11:40:26.508Z,24.87
2023-03-02T11:42:53.151Z,24.87
2023-03-02T11:45:21.701Z,24.86
2023-03-02T11:48:02.207Z,24.86
2023-03-02T11:50:29.738Z,24.85
2023-03-02T11:52:59.878Z,24.83
2023-03-02T11:55:27.028Z,24.82
2023-03-02T11:57:57.767Z,24.80
2023-03-02T12:00:29.814Z,24.80
2023-03-02T12:03:00.630Z,24.81
2023-03-02T12:05:28.260Z,24.79
2023-03-02T12:07:58.576Z,24.79
2023-03-02T12:10:30.465Z,24.78
2023-03-02T12:13:15.860Z,24.78
2023-03-02T12:15:43.504Z,24.77
2023-03-02T12:18:22.300Z,24.77
2023-03-02T12:20:58.640Z,24.77
2023-03-02T12:23:25.149Z,24.75
2023-03-02T12:26:01.901Z,24.75
2023-03-02T12:28:30.522Z,24.75
2023-03-02T12:31:01.517Z,24.74
2023-03-02T12:33:28.061Z,24.73
2023-03-02T12:36:02.840Z,24.72
2023-03-02T12:38:33.766Z,24.73
2023-03-02T12:41:07.097Z,24.73
2023-03-02T12:43:37.737Z,24.74
2023-03-02T12:46:23.077Z,24.73
2023-03-02T12:48:52.733Z,24.74
2023-03-02T12:51:23.435Z,24.74
2023-03-02T12:53:50.650Z,24.74
2023-03-02T12:56:24.002Z,24.74
2023-03-02T12:58:50.898Z,24.74
2023-03-02T13:01:20.751Z,24.74
2023-03-02T13:03:47.894Z,24.73
2023-03-02T13:06:15.383Z,24.74
2023-03-02T13:08:45.423Z,24.73
2023-03-02T13:11:12.084Z,24.73
2023-03-02T13:13:40.017Z,24.73
2023-03-02T13:16:22.730Z,24.73
2023-03-02T13:18:49.942Z,24.74
2023-03-02T13:21:16.580Z,24.74
2023-03-02T13:23:49.031Z,24.72
2023-03-02T13:26:42.152Z,24.74
2023-03-02T13:29:23.872Z,24.74
2023-03-02T13:31:50.568Z,24.74
2023-03-02T13:34:28.934Z,24.74
2023-03-02T13:36:55.974Z,24.75
2023-03-02T13:39:26.542Z,24.75
2023-03-02T13:41:55.069Z,24.74
2023-03-02T13:44:27.985Z,24.75
2023-03-02T13:46:54.621Z,24.75
2023-03-02T13:49:36.549Z,24.76
2023-03-02T13:52:06.375Z,24.77
2023-03-02T13:54:34.998Z,24.76
2023-03-02T13:57:02.602Z,24.77
2023-03-02T13:59:29.122Z,24.78
2023-03-02T14:01:55.606Z,24.85
2023-03-02T14:04:23.508Z,24.88
2023-03-02T14:06:50.685Z,24.92
2023-03-02T14:09:17.384Z,24.92
2023-03-02T14:11:44.573Z,24.85
2023-03-02T14:14:12.478Z,24.78
2023-03-02T14:16:39.221Z,24.74
2023-03-02T14:19:06.353Z,24.72
2023-03-02T14:21:33.024Z,24.68
2023-03-02T14:23:59.986Z,24.63
2023-03-02T14:26:39.354Z,24.56
2023-03-02T14:29:24.986Z,24.54
2023-03-02T14:31:51.656Z,24.52
2023-03-02T14:34:19.421Z,24.53
2023-03-02T14:36:47.090Z,24.54
2023-03-02T14:39:29.463Z,24.57
2023-03-02T14:41:56.818Z,24.60
2023-03-02T14:44:23.840Z,24.62
2023-03-02T14:46:51.206Z,24.63
2023-03-02T14:49:17.639Z,24.66
2023-03-02T14:51:44.206Z,24.66
2023-03-02T14:54:13.841Z,24.67
2023-03-02T14:56:40.479Z,24.68
2023-03-02T14:59:08.912Z,24.68
2023-03-02T15:01:36.133Z,24.67
2023-03-02T15:04:02.794Z,24.67
2023-03-02T15:06:30.769Z,24.67
2023-03-02T15:08:58.237Z,24.67
2023-03-02T15:11:25.140Z,24.66
2023-03-02T15:13:51.642Z,24.67
2023-03-02T15:16:18.444Z,24.67
2023-03-02T15:18:44.961Z,24.66
2023-03-02T15:21:14.390Z,24.67
2023-03-02T15:23:40.981Z,24.66
2023-03-02T15:26:09.343Z,24.66
2023-03-02T15:28:35.795Z,24.64
2023-03-02T15:31:12.196Z,24.64
2023-03-02T15:33:39.970Z,24.65
2023-03-02T15:36:07.153Z,24.64
2023-03-02T15:38:34.314Z,24.62
2023-03-02T15:41:04.703Z,24.60
2023-03-02T15:43:31.286Z,24.54
2023-03-02T15:45:57.949Z,24.50
2023-03-02T15:48:24.459Z,24.46
2023-03-02T15:51:00.794Z,24.41
2023-03-02T15:53:27.874Z,24.36
2023-03-02T15:55:54.546Z,24.31
2023-03-02T15:58:21.956Z,24.25
2023-03-02T16:00:49.119Z,24.22
2023-03-02T16:03:16.033Z,24.18
2023-03-02T16:05:42.876Z,24.18
2023-03-02T16:08:09.512Z,24.18
2023-03-02T16:10:36.727Z,24.18
2023-03-02T16:13:03.693Z,24.18
2023-03-02T16:15:30.208Z,24.18
2023-03-02T16:17:56.886Z,24.18
2023-03-02T16:20:23.463Z,24.14
2023-03-02T16:22:49.947Z,24.21
2023-03-02T16:25:16.410Z,24.30
2023-03-02T16:27:47.389Z,24.39
2023-03-02T16:30:15.321Z,24.49
2023-03-02T16:32:41.907Z,24.54
2023-03-02T16:35:09.018Z,24.57
2023-03-02T16:37:36.075Z,24.61
2023-03-02T16:40:02.643Z,24.64
2023-03-02T16:42:31.560Z,24.68
2023-03-02T16:44:58.256Z,24.70
2023-03-02T16:47:25.009Z,24.72
2023-03-02T16:49:51.606Z,24.74
2023-03-02T16:52:18.546Z,24.74
2023-03-02T16:54:45.085Z,24.75
2023-03-02T16:57:11.584Z,24.74
2023-03-02T16:59:38.635Z,24.75
2023-03-02T17:02:06.530Z,24.77
2023-03-02T17:04:34.913Z,24.78
2023-03-02T17:07:01.658Z,24.79
2023-03-02T17:09:28.257Z,24.79
2023-03-02T17:11:55.434Z,24.80
2023-03-02T17:14:22.302Z,24.82
2023-03-02T17:16:49.065Z,24.84
2023-03-02T17:19:16.482Z,24.84
2023-03-02T17:21:43.676Z,24.85
2023-03-02T17:24:10.118Z,24.86
2023-03-02T17:26:36.534Z,24.87
2023-03-02T17:29:02.994Z,24.88
2023-03-02T17:31:30.726Z,24.89
2023-03-02T17:33:58.883Z,24.90
2023-03-02T17:36:25.337Z,24.91
2023-03-02T17:38:52.014Z,24.92
2023-03-02T17:41:18.467Z,24.94
2023-03-02T17:43:45.155Z,24.93
2023-03-02T17:46:11.761Z,24.94
2023-03-02T17:48:39.032Z,24.95
2023-03-02T17:51:05.633Z,24.98
2023-03-02T17:53:32.137Z,25.04
2023-03-02T17:55:58.694Z,25.09
2023-03-02T17:58:26.731Z,25.09
2023-03-02T18:00:54.968Z,25.07
2023-03-02T18:03:22.484Z,25.05
2023-03-02T18:05:48.993Z,25.04
2023-03-02T18:08:15.461Z,25.04
2023-03-02T18:10:42.492Z,25.02
2023-03-02T18:13:09.003Z,25.01
2023-03-02T18:15:35.661Z,25.00
2023-03-02T18:18:02.279Z,24.99
2023-03-02T18:20:31.396Z,25.01
2023-03-02T18:22:58.554Z,25.00
2023-03-02T18:25:25.276Z,25.01
2023-03-02T18:27:52.060Z,25.01
2023-03-02T18:30:20.000Z,25.02
2023-03-02T18:32:47.237Z,25.01
2023-03-02T18:35:13.890Z,25.03
2023-03-02T18:37:40.499Z,25.03
2023-03-02T18:40:07.320Z,25.03
2023-03-02T18:42:33.882Z,25.04
2023-03-02T18:45:01.438Z,25.04
2023-03-02T18:47:29.000Z,25.06
2023-03-02T18:49:55.591Z,25.07
2023-03-02T18:52:22.084Z,25.07
2023-03-02T18:54:49.489Z,25.08
2023-03-02T18:57:16.531Z,25.08
2023-03-02T18:59:42.996Z,25.09
2023-03-02T19:02:11.901Z,25.09
2023-03-02T19:04:38.342Z,25.10
2023-03-02T19:07:06.907Z,25.09
2023-03-02T19:09:34.751Z,25.09
2023-03-02T19:12:01.334Z,25.09
2023-03-02T19:14:30.034Z,25.10
2023-03-02T19:16:57.132Z,25.11
2023-03-02T19:19:23.624Z,25.11
2023-03-02T19:21:50.330Z,25.09
2023-03-02T19:24:17.038Z,25.11
2023-03-02T19:26:43.785Z,25.09
2023-03-02T19:29:10.223Z,25.09
2023-03-02T19:31:39.927Z,25.09
2023-03-02T19:34:06.949Z,25.08
2023-03-02T19:36:33.572Z,25.09
2023-03-02T19:39:01.357Z,25.09
2023-03-02T19:41:28.204Z,25.08
2023-03-02T19:43:54.906Z,25.09
2023-03-02T19:46:21.507Z,25.09
2023-03-02T19:48:48.166Z,25.07
2023-03-02T19:51:15.287Z,25.08
2023-03-02T19:53:41.804Z,25.07
2023-03-02T19:56:09.395Z,25.07
2023-03-02T19:58:36.028Z,25.07
2023-03-02T20:01:04.015Z,25.07
2023-03-02T20:03:30.604Z,25.07
2023-03-02T20:05:58.958Z,25.08
2023-03-02T20:08:25.558Z,25.08
2023-03-02T20:10:52.112Z,25.08
2023-03-02T20:13:18.606Z,25.07
2023-03-02T20:15:45.957Z,25.08
2023-03-02T20:18:16.616Z,25.08
2023-03-02T20:20:45.110Z,25.07
2023-03-02T20:23:11.828Z,25.05
2023-03-02T20:25:38.714Z,25.07
2023-03-02T20:28:05.764Z,25.06
2023-03-02T20:30:35.379Z,25.05
2023-03-02T20:33:02.480Z,25.06
2023-03-02T20:35:29.930Z,25.05
2023-03-02T20:37:56.746Z,25.05
2023-03-02T20:40:23.497Z,25.03
2023-03-02T20:42:50.033Z,24.97
2023-03-02T20:45:16.624Z,24.88
2023-03-02T20:47:45.243Z,24.79
2023-03-02T20:50:14.753Z,24.69
2023-03-02T20:52:41.432Z,24.60
2023-03-02T20:55:08.144Z,24.56
2023-03-02T20:57:34.750Z,24.48
2023-03-02T21:00:01.418Z,24.39
2023-03-02T21:02:28.281Z,24.32
2023-03-02T21:04:54.875Z,24.24
2023-03-02T21:07:21.439Z,24.20
2023-03-02T21:09:48.181Z,24.18
2023-03-02T21:12:14.943Z,24.13
2023-03-02T21:14:41.727Z,24.08
2023-03-02T21:17:08.749Z,24.03
2023-03-02T21:19:35.703Z,24.00
2023-03-02T21:22:02.518Z,23.96
2023-03-02T21:24:29.070Z,23.92
2023-03-02T21:26:56.045Z,23.86
2023-03-02T21:29:24.217Z,23.82
2023-03-02T21:31:50.696Z,23.76
2023-03-02T21:34:18.894Z,23.72
2023-03-02T21:36:46.072Z,23.67
2023-03-02T21:39:12.745Z,23.63
2023-03-02T21:41:40.214Z,23.60
2023-03-02T21:44:06.946Z,23.57
2023-03-02T21:46:34.150Z,23.55
2023-03-02T21:49:01.059Z,23.53
2023-03-02T21:51:27.887Z,23.50
2023-03-02T21:53:54.399Z,23.46
2023-03-02T21:56:22.940Z,23.28
2023-03-02T21:58:49.824Z,23.43
2023-03-02T22:01:16.352Z,23.40
2023-03-02T22:03:43.134Z,23.39
2023-03-02T22:06:12.099Z,23.37
2023-03-02T22:08:39.224Z,23.34
2023-03-02T22:11:05.860Z,23.33
2023-03-02T22:13:32.899Z,23.32
2023-03-02T22:16:16.160Z,23.32
2023-03-02T22:18:43.183Z,23.30
2023-03-02T22:21:18.670Z,23.29
2023-03-02T22:23:45.197Z,23.26
2023-03-02T22:26:15.701Z,23.26
2023-03-02T22:28:42.424Z,23.23
2023-03-02T22:31:19.116Z,23.23
2023-03-02T22:33:45.685Z,23.20
2023-03-02T22:36:20.919Z,23.21
2023-03-02T22:38:50.285Z,23.19
2023-03-02T22:41:18.782Z,23.18
2023-03-02T22:43:46.022Z,23.17
2023-03-02T22:46:15.765Z,23.16
2023-03-02T22:48:45.827Z,23.15
2023-03-02T22:51:15.390Z,23.14
2023-03-02T22:53:45.193Z,23.13
2023-03-02T22:56:30.460Z,23.10
2023-03-02T22:59:07.405Z,23.10
2023-03-02T23:01:38.391Z,23.11
2023-03-02T23:04:07.947Z,23.10
2023-03-02T23:06:38.468Z,23.07
2023-03-02T23:09:06.191Z,23.07
2023-03-02T23:11:37.577Z,23.06
2023-03-02T23:14:11.012Z,23.04
2023-03-02T23:16:37.574Z,23.04
2023-03-02T23:19:05.378Z,23.02
2023-03-02T23:21:41.726Z,23.03
2023-03-02T23:24:09.011Z,23.02
2023-03-02T23:26:35.790Z,23.01
2023-03-02T23:29:02.449Z,23.01
2023-03-02T23:31:29.025Z,23.02
2023-03-02T23:33:56.123Z,23.01
2023-03-02T23:36:23.246Z,23.00
2023-03-02T23:38:49.788Z,22.99
2023-03-02T23:41:16.447Z,22.99
2023-03-02T23:43:43.345Z,22.98
2023-03-02T23:46:13.904Z,22.97
2023-03-02T23:48:41.259Z,22.96
2023-03-02T23:51:08.530Z,22.96
2023-03-02T23:53:35.011Z,22.96
2023-03-02T23:56:01.450Z,22.94
2023-03-02T23:58:27.955Z,22.93
